Great Scott, Minnesota
Current Conditions -  °F | °C
As of 6:53 AM on Saturday 01 Nov 2014 (Local Time) from KHIB Reporting Station
Clear Clear  
Wind Chill: 14°   Ceiling: Unl
Heat Index: 14°   Visibility: 10mi
Dew Point:   Wind: 3mph
Humidity: 80%   Direction: 160°SSE
Pressure: 30.36"   Gusts: NA
Location:  47.4951°N, 92.7779°W
Report Text: KHIB 011153Z AUTO 16003KT 10SM CLR M10/M13 A3036 RMK AO2 SLP310 I6000 T11001128 11094 21117 58009
Loading
Personal Weather Stations






























Interactive Weather Map
Tropical Storm Tracking
New forecast layout! Learn more

10-Day Weather Forecast

Advertisements
Track Severe Weather on mobile